Aeroporto :
LOGIN :

Iscrizione | Disclaimer

   EN    FR    IT 

 










Sommario :    VFR   VFR Marginale   IFR   IFR Intensivo   IFR Molto Intensivo
Visibilità : 
Base nubi : 
>= 8 km
>= 3000ft
5 / 8 km
1000 / 3000 ft
1500m / 5 km
500 / 1000 ft
800 / 1500m
200 / 500 ft
< 800m
< 200 ft
Simboli :   Temporali  Nebbia  Neve Forte  Precipitazioni Forti  Vento > 20 kt
SIGMETs :   Varie  Temporali  Ghiacco  Turbolenza  Onda orograficha  Ceneri Vulcaniche







- Altitudine del aeroporto : 751 ft
- Codice IATA : ENC
- Carte del aeroporto


LFSN - Nancy Essey

ULTIMO METAR :
  • 121330Z AUTO 24007KT 200V280 9999 BKN033 BKN039 BKN050 05/M01 Q1012

METARs OBSOLETI :
  • 121300Z AUTO 27011G21KT 230V310 9999 BKN033 BKN039 BKN054 06/M02 Q1012
  • 121230Z AUTO 24010KT 190V270 9999 BKN030 06/M01 Q1012
  • 121200Z AUTO 24010KT 200V260 9999 OVC030 06/M01 Q1011
  • 121130Z AUTO 23011KT 200V270 9999 BKN028 BKN033 05/M01 Q1011
  • 121100Z AUTO 24009KT 210V300 9999 BKN028 04/M00 Q1011

Previsioni scadute.
Nessun NOTAM noto per questo aeroporto.



MetMap, La meteo Aeronautica in un colpo d'occhio ! - Copyright ORBIFLY Dicembre 2007 - Disclaimer

ORBIFLY MET'MAP TEAM :

Programmazione e sviluppo : Alexandra Zaïnal
Concezione e sviluppo : Baudouin d'Aumeries
Co-Programmazione e sviluppo : Marc-Olivier Méhu
Supporto tecnico e logistico : Manuel Goepfert
Aiuto per la traduzione : Arnaldo La Scala

Contatto : metmap@orbifly.com




FONTI E CREDITI :

   NOAA